sensor_id;sensor_type;location;lat;lon;timestamp;P1;durP1;ratioP1;P2;durP2;ratioP2
25569;SDS011;17955;45.542;9.238;2023-04-01T00:01:56;7.75;;;4.88;;
25569;SDS011;17955;45.542;9.238;2023-04-01T00:04:23;8.23;;;4.68;;
25569;SDS011;17955;45.542;9.238;2023-04-01T00:06:52;9.55;;;4.57;;
25569;SDS011;17955;45.542;9.238;2023-04-01T00:09:19;5.65;;;4.00;;
25569;SDS011;17955;45.542;9.238;2023-04-01T00:11:46;8.30;;;4.90;;
25569;SDS011;17955;45.542;9.238;2023-04-01T00:14:13;9.10;;;4.88;;
25569;SDS011;17955;45.542;9.238;2023-04-01T00:16:40;8.00;;;4.15;;
25569;SDS011;17955;45.542;9.238;2023-04-01T00:19:08;7.80;;;5.10;;
25569;SDS011;17955;45.542;9.238;2023-04-01T00:21:35;8.75;;;4.68;;
25569;SDS011;17955;45.542;9.238;2023-04-01T00:24:04;5.93;;;4.22;;
25569;SDS011;17955;45.542;9.238;2023-04-01T00:26:32;8.77;;;4.13;;
25569;SDS011;17955;45.542;9.238;2023-04-01T00:28:59;7.50;;;4.35;;
25569;SDS011;17955;45.542;9.238;2023-04-01T00:31:26;7.22;;;4.47;;
25569;SDS011;17955;45.542;9.238;2023-04-01T00:33:54;8.10;;;4.82;;
25569;SDS011;17955;45.542;9.238;2023-04-01T00:36:21;7.25;;;4.45;;
25569;SDS011;17955;45.542;9.238;2023-04-01T00:38:49;6.38;;;4.13;;
25569;SDS011;17955;45.542;9.238;2023-04-01T00:41:18;9.40;;;4.30;;
25569;SDS011;17955;45.542;9.238;2023-04-01T00:43:47;6.22;;;3.97;;
25569;SDS011;17955;45.542;9.238;2023-04-01T00:46:14;6.53;;;3.90;;
25569;SDS011;17955;45.542;9.238;2023-04-01T00:48:42;7.68;;;4.53;;
25569;SDS011;17955;45.542;9.238;2023-04-01T00:51:11;6.45;;;4.10;;
25569;SDS011;17955;45.542;9.238;2023-04-01T00:53:41;7.63;;;4.53;;
25569;SDS011;17955;45.542;9.238;2023-04-01T00:56:10;6.35;;;4.13;;
25569;SDS011;17955;45.542;9.238;2023-04-01T00:58:40;7.72;;;4.00;;
25569;SDS011;17955;45.542;9.238;2023-04-01T01:01:10;5.95;;;3.70;;
25569;SDS011;17955;45.542;9.238;2023-04-01T01:03:37;6.97;;;4.00;;
25569;SDS011;17955;45.542;9.238;2023-04-01T01:06:08;4.85;;;3.33;;
25569;SDS011;17955;45.542;9.238;2023-04-01T01:08:43;6.32;;;3.72;;
25569;SDS011;17955;45.542;9.238;2023-04-01T01:11:13;4.78;;;3.58;;
25569;SDS011;17955;45.542;9.238;2023-04-01T01:13:45;4.82;;;3.33;;
25569;SDS011;17955;45.542;9.238;2023-04-01T01:16:17;5.25;;;3.10;;
25569;SDS011;17955;45.542;9.238;2023-04-01T01:18:49;5.32;;;3.33;;
25569;SDS011;17955;45.542;9.238;2023-04-01T01:24:13;5.55;;;3.20;;
25569;SDS011;17955;45.542;9.238;2023-04-01T01:26:46;5.20;;;3.50;;
25569;SDS011;17955;45.542;9.238;2023-04-01T01:31:49;6.25;;;3.85;;
25569;SDS011;17955;45.542;9.238;2023-04-01T01:34:19;8.20;;;3.28;;
25569;SDS011;17955;45.542;9.238;2023-04-01T01:36:50;6.80;;;3.38;;
25569;SDS011;17955;45.542;9.238;2023-04-01T01:39:21;5.35;;;3.08;;
25569;SDS011;17955;45.542;9.238;2023-04-01T01:41:53;5.53;;;3.35;;
25569;SDS011;17955;45.542;9.238;2023-04-01T01:44:23;5.68;;;3.45;;
25569;SDS011;17955;45.542;9.238;2023-04-01T01:46:51;4.70;;;2.95;;
25569;SDS011;17955;45.542;9.238;2023-04-01T01:49:18;7.47;;;3.35;;
25569;SDS011;17955;45.542;9.238;2023-04-01T01:51:46;4.28;;;2.75;;
25569;SDS011;17955;45.542;9.238;2023-04-01T01:54:16;4.75;;;3.22;;
25569;SDS011;17955;45.542;9.238;2023-04-01T01:56:44;7.40;;;3.40;;
25569;SDS011;17955;45.542;9.238;2023-04-01T01:59:14;4.78;;;3.15;;
25569;SDS011;17955;45.542;9.238;2023-04-01T02:01:42;4.68;;;2.97;;
25569;SDS011;17955;45.542;9.238;2023-04-01T02:04:13;4.90;;;2.97;;
25569;SDS011;17955;45.542;9.238;2023-04-01T02:06:41;4.78;;;3.15;;
25569;SDS011;17955;45.542;9.238;2023-04-01T02:09:10;4.85;;;3.20;;
25569;SDS011;17955;45.542;9.238;2023-04-01T02:11:40;4.85;;;3.05;;
25569;SDS011;17955;45.542;9.238;2023-04-01T02:14:09;4.82;;;2.88;;
25569;SDS011;17955;45.542;9.238;2023-04-01T02:16:39;4.68;;;2.72;;
25569;SDS011;17955;45.542;9.238;2023-04-01T02:19:09;4.80;;;3.25;;
25569;SDS011;17955;45.542;9.238;2023-04-01T02:21:37;5.43;;;2.72;;
25569;SDS011;17955;45.542;9.238;2023-04-01T02:24:08;6.22;;;3.28;;
25569;SDS011;17955;45.542;9.238;2023-04-01T02:26:39;7.05;;;3.25;;
25569;SDS011;17955;45.542;9.238;2023-04-01T02:29:06;5.18;;;3.00;;
25569;SDS011;17955;45.542;9.238;2023-04-01T02:31:35;15.35;;;4.15;;
25569;SDS011;17955;45.542;9.238;2023-04-01T02:34:03;6.13;;;3.03;;
25569;SDS011;17955;45.542;9.238;2023-04-01T02:36:30;6.07;;;3.40;;
25569;SDS011;17955;45.542;9.238;2023-04-01T02:38:58;7.30;;;3.50;;
25569;SDS011;17955;45.542;9.238;2023-04-01T02:41:27;7.18;;;4.18;;
25569;SDS011;17955;45.542;9.238;2023-04-01T02:43:56;7.20;;;3.85;;
25569;SDS011;17955;45.542;9.238;2023-04-01T02:46:24;7.97;;;3.90;;
25569;SDS011;17955;45.542;9.238;2023-04-01T02:48:51;8.52;;;3.63;;
25569;SDS011;17955;45.542;9.238;2023-04-01T02:51:19;6.75;;;3.90;;
25569;SDS011;17955;45.542;9.238;2023-04-01T02:53:46;7.93;;;4.32;;
25569;SDS011;17955;45.542;9.238;2023-04-01T02:56:14;6.50;;;3.85;;
25569;SDS011;17955;45.542;9.238;2023-04-01T02:58:41;7.57;;;3.85;;
25569;SDS011;17955;45.542;9.238;2023-04-01T03:01:09;5.50;;;3.55;;
25569;SDS011;17955;45.542;9.238;2023-04-01T03:03:36;5.57;;;3.17;;
25569;SDS011;17955;45.542;9.238;2023-04-01T03:06:04;7.10;;;3.90;;
25569;SDS011;17955;45.542;9.238;2023-04-01T03:08:32;6.47;;;3.92;;
25569;SDS011;17955;45.542;9.238;2023-04-01T03:10:59;4.68;;;3.05;;
25569;SDS011;17955;45.542;9.238;2023-04-01T03:13:27;5.93;;;3.75;;
25569;SDS011;17955;45.542;9.238;2023-04-01T03:15:54;7.60;;;3.72;;
25569;SDS011;17955;45.542;9.238;2023-04-01T03:18:23;5.10;;;3.38;;
25569;SDS011;17955;45.542;9.238;2023-04-01T03:20:51;5.45;;;3.42;;
25569;SDS011;17955;45.542;9.238;2023-04-01T03:23:18;6.43;;;3.53;;
25569;SDS011;17955;45.542;9.238;2023-04-01T03:25:46;6.05;;;3.42;;
25569;SDS011;17955;45.542;9.238;2023-04-01T03:28:15;6.65;;;3.90;;
25569;SDS011;17955;45.542;9.238;2023-04-01T03:30:42;13.88;;;3.72;;
25569;SDS011;17955;45.542;9.238;2023-04-01T03:33:10;5.95;;;3.60;;
25569;SDS011;17955;45.542;9.238;2023-04-01T03:35:38;4.95;;;3.00;;
25569;SDS011;17955;45.542;9.238;2023-04-01T03:38:06;6.93;;;3.65;;
25569;SDS011;17955;45.542;9.238;2023-04-01T03:40:33;6.43;;;3.40;;
25569;SDS011;17955;45.542;9.238;2023-04-01T03:43:02;7.18;;;3.47;;
25569;SDS011;17955;45.542;9.238;2023-04-01T03:45:33;6.07;;;3.58;;
25569;SDS011;17955;45.542;9.238;2023-04-01T03:48:01;12.00;;;3.70;;
25569;SDS011;17955;45.542;9.238;2023-04-01T03:50:29;4.85;;;3.08;;
25569;SDS011;17955;45.542;9.238;2023-04-01T03:52:57;7.18;;;3.47;;
25569;SDS011;17955;45.542;9.238;2023-04-01T03:55:25;5.47;;;3.60;;
25569;SDS011;17955;45.542;9.238;2023-04-01T03:57:52;5.13;;;2.97;;
25569;SDS011;17955;45.542;9.238;2023-04-01T04:00:19;5.50;;;3.67;;
25569;SDS011;17955;45.542;9.238;2023-04-01T04:02:52;5.10;;;2.85;;
25569;SDS011;17955;45.542;9.238;2023-04-01T04:05:25;4.57;;;2.90;;
25569;SDS011;17955;45.542;9.238;2023-04-01T04:07:53;4.30;;;2.70;;
25569;SDS011;17955;45.542;9.238;2023-04-01T04:10:22;4.68;;;2.72;;
25569;SDS011;17955;45.542;9.238;2023-04-01T04:12:50;4.90;;;2.58;;
25569;SDS011;17955;45.542;9.238;2023-04-01T04:15:19;4.00;;;2.78;;
25569;SDS011;17955;45.542;9.238;2023-04-01T04:17:47;10.23;;;2.72;;
25569;SDS011;17955;45.542;9.238;2023-04-01T04:20:14;4.28;;;2.65;;
25569;SDS011;17955;45.542;9.238;2023-04-01T04:22:42;5.07;;;2.72;;
25569;SDS011;17955;45.542;9.238;2023-04-01T04:25:09;4.95;;;3.00;;
25569;SDS011;17955;45.542;9.238;2023-04-01T04:27:39;4.10;;;2.60;;
25569;SDS011;17955;45.542;9.238;2023-04-01T04:30:08;5.38;;;3.17;;
25569;SDS011;17955;45.542;9.238;2023-04-01T04:32:36;7.63;;;3.17;;
25569;SDS011;17955;45.542;9.238;2023-04-01T04:35:04;5.05;;;2.95;;
25569;SDS011;17955;45.542;9.238;2023-04-01T04:37:32;4.50;;;2.80;;
25569;SDS011;17955;45.542;9.238;2023-04-01T04:39:59;6.38;;;2.90;;
25569;SDS011;17955;45.542;9.238;2023-04-01T04:42:28;4.05;;;2.60;;
25569;SDS011;17955;45.542;9.238;2023-04-01T04:45:02;4.55;;;2.83;;
25569;SDS011;17955;45.542;9.238;2023-04-01T04:47:30;5.65;;;2.88;;
25569;SDS011;17955;45.542;9.238;2023-04-01T04:49:58;5.45;;;2.85;;
25569;SDS011;17955;45.542;9.238;2023-04-01T04:52:25;4.75;;;2.95;;
25569;SDS011;17955;45.542;9.238;2023-04-01T04:54:52;8.32;;;3.25;;
25569;SDS011;17955;45.542;9.238;2023-04-01T04:57:20;4.22;;;2.75;;
25569;SDS011;17955;45.542;9.238;2023-04-01T04:59:53;6.10;;;3.00;;
25569;SDS011;17955;45.542;9.238;2023-04-01T05:02:40;4.80;;;2.85;;
25569;SDS011;17955;45.542;9.238;2023-04-01T05:05:07;4.38;;;3.10;;
25569;SDS011;17955;45.542;9.238;2023-04-01T05:07:35;4.75;;;3.05;;
25569;SDS011;17955;45.542;9.238;2023-04-01T05:10:03;4.57;;;2.55;;
25569;SDS011;17955;45.542;9.238;2023-04-01T05:12:30;5.85;;;2.88;;
25569;SDS011;17955;45.542;9.238;2023-04-01T05:15:02;8.27;;;3.03;;
25569;SDS011;17955;45.542;9.238;2023-04-01T05:17:29;4.55;;;3.10;;
25569;SDS011;17955;45.542;9.238;2023-04-01T05:19:58;5.07;;;3.55;;
25569;SDS011;17955;45.542;9.238;2023-04-01T05:22:26;6.70;;;3.70;;
25569;SDS011;17955;45.542;9.238;2023-04-01T05:24:53;5.00;;;3.00;;
25569;SDS011;17955;45.542;9.238;2023-04-01T05:27:21;7.78;;;3.20;;
25569;SDS011;17955;45.542;9.238;2023-04-01T05:29:48;7.15;;;3.13;;
25569;SDS011;17955;45.542;9.238;2023-04-01T05:35:04;5.03;;;2.53;;
25569;SDS011;17955;45.542;9.238;2023-04-01T05:37:32;7.72;;;2.47;;
25569;SDS011;17955;45.542;9.238;2023-04-01T05:40:01;7.15;;;2.45;;
25569;SDS011;17955;45.542;9.238;2023-04-01T05:42:28;6.13;;;2.50;;
25569;SDS011;17955;45.542;9.238;2023-04-01T05:44:56;3.75;;;2.55;;
25569;SDS011;17955;45.542;9.238;2023-04-01T05:47:42;4.70;;;2.58;;
25569;SDS011;17955;45.542;9.238;2023-04-01T05:50:11;5.38;;;2.78;;
25569;SDS011;17955;45.542;9.238;2023-04-01T05:52:38;7.57;;;2.88;;
25569;SDS011;17955;45.542;9.238;2023-04-01T05:55:06;5.38;;;2.40;;
25569;SDS011;17955;45.542;9.238;2023-04-01T05:57:33;7.47;;;2.03;;
25569;SDS011;17955;45.542;9.238;2023-04-01T06:00:00;5.88;;;2.60;;
25569;SDS011;17955;45.542;9.238;2023-04-01T06:02:37;5.65;;;2.78;;
25569;SDS011;17955;45.542;9.238;2023-04-01T06:05:13;5.68;;;2.58;;
25569;SDS011;17955;45.542;9.238;2023-04-01T06:07:40;3.88;;;2.42;;
25569;SDS011;17955;45.542;9.238;2023-04-01T06:10:10;7.38;;;2.22;;
25569;SDS011;17955;45.542;9.238;2023-04-01T06:12:48;4.60;;;2.50;;
25569;SDS011;17955;45.542;9.238;2023-04-01T06:15:19;4.43;;;2.25;;
25569;SDS011;17955;45.542;9.238;2023-04-01T06:17:52;5.38;;;2.40;;
25569;SDS011;17955;45.542;9.238;2023-04-01T06:20:26;3.53;;;2.08;;
25569;SDS011;17955;45.542;9.238;2023-04-01T06:23:09;3.63;;;2.17;;
25569;SDS011;17955;45.542;9.238;2023-04-01T06:28:38;5.20;;;2.25;;
25569;SDS011;17955;45.542;9.238;2023-04-01T06:31:10;3.70;;;2.30;;
25569;SDS011;17955;45.542;9.238;2023-04-01T06:33:45;4.22;;;2.53;;
25569;SDS011;17955;45.542;9.238;2023-04-01T06:36:22;3.78;;;2.28;;
25569;SDS011;17955;45.542;9.238;2023-04-01T06:44:23;11.02;;;2.47;;
25569;SDS011;17955;45.542;9.238;2023-04-01T06:47:20;3.70;;;2.00;;
25569;SDS011;17955;45.542;9.238;2023-04-01T06:50:11;3.20;;;2.15;;
25569;SDS011;17955;45.542;9.238;2023-04-01T06:56:11;3.97;;;2.10;;
25569;SDS011;17955;45.542;9.238;2023-04-01T06:58:49;4.38;;;2.28;;
25569;SDS011;17955;45.542;9.238;2023-04-01T07:01:18;4.68;;;2.05;;
25569;SDS011;17955;45.542;9.238;2023-04-01T07:03:49;4.70;;;2.35;;
25569;SDS011;17955;45.542;9.238;2023-04-01T07:06:23;6.05;;;2.47;;
25569;SDS011;17955;45.542;9.238;2023-04-01T07:08:55;6.97;;;2.30;;
25569;SDS011;17955;45.542;9.238;2023-04-01T07:11:30;8.77;;;2.72;;
25569;SDS011;17955;45.542;9.238;2023-04-01T07:14:17;4.53;;;2.05;;
25569;SDS011;17955;45.542;9.238;2023-04-01T07:16:47;3.63;;;2.10;;
25569;SDS011;17955;45.542;9.238;2023-04-01T07:19:16;3.55;;;2.10;;
25569;SDS011;17955;45.542;9.238;2023-04-01T07:22:01;3.80;;;1.90;;
25569;SDS011;17955;45.542;9.238;2023-04-01T07:24:50;3.00;;;1.75;;
25569;SDS011;17955;45.542;9.238;2023-04-01T07:27:22;5.20;;;2.20;;
25569;SDS011;17955;45.542;9.238;2023-04-01T07:29:50;3.63;;;1.83;;
25569;SDS011;17955;45.542;9.238;2023-04-01T07:32:20;9.60;;;2.20;;
25569;SDS011;17955;45.542;9.238;2023-04-01T07:34:51;4.30;;;1.95;;
25569;SDS011;17955;45.542;9.238;2023-04-01T07:37:22;8.23;;;2.00;;
25569;SDS011;17955;45.542;9.238;2023-04-01T07:39:53;3.90;;;1.80;;
25569;SDS011;17955;45.542;9.238;2023-04-01T07:42:31;2.88;;;1.73;;
25569;SDS011;17955;45.542;9.238;2023-04-01T07:45:04;4.57;;;2.25;;
25569;SDS011;17955;45.542;9.238;2023-04-01T07:47:48;4.38;;;2.25;;
25569;SDS011;17955;45.542;9.238;2023-04-01T07:50:25;3.63;;;2.17;;
25569;SDS011;17955;45.542;9.238;2023-04-01T07:52:56;3.10;;;2.00;;
25569;SDS011;17955;45.542;9.238;2023-04-01T07:55:27;4.18;;;2.00;;
25569;SDS011;17955;45.542;9.238;2023-04-01T07:58:00;3.55;;;1.90;;
25569;SDS011;17955;45.542;9.238;2023-04-01T08:00:35;4.90;;;1.90;;
25569;SDS011;17955;45.542;9.238;2023-04-01T08:03:21;3.55;;;2.20;;
25569;SDS011;17955;45.542;9.238;2023-04-01T08:05:55;5.82;;;2.05;;
25569;SDS011;17955;45.542;9.238;2023-04-01T08:08:27;3.08;;;1.90;;
25569;SDS011;17955;45.542;9.238;2023-04-01T08:11:26;4.30;;;2.03;;
25569;SDS011;17955;45.542;9.238;2023-04-01T08:14:17;4.78;;;2.08;;
25569;SDS011;17955;45.542;9.238;2023-04-01T08:17:16;6.57;;;2.13;;
25569;SDS011;17955;45.542;9.238;2023-04-01T08:19:51;6.93;;;1.85;;
25569;SDS011;17955;45.542;9.238;2023-04-01T08:22:23;3.90;;;2.25;;
25569;SDS011;17955;45.542;9.238;2023-04-01T08:24:55;5.07;;;2.35;;
25569;SDS011;17955;45.542;9.238;2023-04-01T08:27:26;3.97;;;1.83;;
25569;SDS011;17955;45.542;9.238;2023-04-01T08:29:58;5.38;;;2.38;;
25569;SDS011;17955;45.542;9.238;2023-04-01T08:32:28;4.97;;;1.83;;
25569;SDS011;17955;45.542;9.238;2023-04-01T08:35:02;4.95;;;2.05;;
25569;SDS011;17955;45.542;9.238;2023-04-01T08:37:35;4.65;;;2.28;;
25569;SDS011;17955;45.542;9.238;2023-04-01T08:40:11;4.32;;;2.20;;
25569;SDS011;17955;45.542;9.238;2023-04-01T08:42:50;4.45;;;2.10;;
25569;SDS011;17955;45.542;9.238;2023-04-01T08:45:25;4.97;;;1.90;;
25569;SDS011;17955;45.542;9.238;2023-04-01T08:47:57;3.65;;;1.70;;
25569;SDS011;17955;45.542;9.238;2023-04-01T08:53:30;3.53;;;1.58;;
25569;SDS011;17955;45.542;9.238;2023-04-01T08:56:04;3.33;;;1.63;;
25569;SDS011;17955;45.542;9.238;2023-04-01T08:58:42;3.22;;;1.40;;
25569;SDS011;17955;45.542;9.238;2023-04-01T09:01:38;4.10;;;2.05;;
25569;SDS011;17955;45.542;9.238;2023-04-01T09:04:39;2.45;;;1.20;;
25569;SDS011;17955;45.542;9.238;2023-04-01T09:07:14;2.55;;;1.35;;
25569;SDS011;17955;45.542;9.238;2023-04-01T09:09:55;2.90;;;1.48;;
25569;SDS011;17955;45.542;9.238;2023-04-01T09:12:35;4.85;;;1.20;;
25569;SDS011;17955;45.542;9.238;2023-04-01T09:15:13;3.42;;;1.17;;
25569;SDS011;17955;45.542;9.238;2023-04-01T09:17:53;3.13;;;1.23;;
25569;SDS011;17955;45.542;9.238;2023-04-01T09:20:30;6.35;;;1.20;;
25569;SDS011;17955;45.542;9.238;2023-04-01T09:23:10;3.22;;;1.52;;
25569;SDS011;17955;45.542;9.238;2023-04-01T09:25:51;4.22;;;1.60;;
25569;SDS011;17955;45.542;9.238;2023-04-01T09:28:22;2.15;;;0.90;;
25569;SDS011;17955;45.542;9.238;2023-04-01T09:30:59;3.58;;;0.90;;
25569;SDS011;17955;45.542;9.238;2023-04-01T09:36:28;2.72;;;1.30;;
25569;SDS011;17955;45.542;9.238;2023-04-01T09:39:03;2.80;;;1.13;;
25569;SDS011;17955;45.542;9.238;2023-04-01T09:41:39;2.55;;;1.10;;
25569;SDS011;17955;45.542;9.238;2023-04-01T09:44:18;1.83;;;1.10;;
25569;SDS011;17955;45.542;9.238;2023-04-01T09:47:07;3.03;;;1.23;;
25569;SDS011;17955;45.542;9.238;2023-04-01T09:49:50;3.15;;;1.42;;
25569;SDS011;17955;45.542;9.238;2023-04-01T09:52:26;6.10;;;1.98;;
25569;SDS011;17955;45.542;9.238;2023-04-01T09:55:14;5.28;;;1.50;;
25569;SDS011;17955;45.542;9.238;2023-04-01T09:57:50;6.03;;;1.85;;
25569;SDS011;17955;45.542;9.238;2023-04-01T10:00:55;5.05;;;1.63;;
25569;SDS011;17955;45.542;9.238;2023-04-01T10:09:01;2.63;;;1.27;;
25569;SDS011;17955;45.542;9.238;2023-04-01T10:14:25;3.35;;;1.50;;
25569;SDS011;17955;45.542;9.238;2023-04-01T10:20:02;2.10;;;1.08;;
25569;SDS011;17955;45.542;9.238;2023-04-01T10:22:41;2.60;;;1.02;;
25569;SDS011;17955;45.542;9.238;2023-04-01T10:25:21;2.20;;;0.80;;
25569;SDS011;17955;45.542;9.238;2023-04-01T10:28:11;2.67;;;1.02;;
25569;SDS011;17955;45.542;9.238;2023-04-01T10:34:08;3.60;;;1.00;;
25569;SDS011;17955;45.542;9.238;2023-04-01T10:36:41;1.20;;;0.73;;
25569;SDS011;17955;45.542;9.238;2023-04-01T10:42:08;4.22;;;1.35;;
25569;SDS011;17955;45.542;9.238;2023-04-01T10:45:24;2.47;;;1.15;;
25569;SDS011;17955;45.542;9.238;2023-04-01T10:48:20;3.22;;;1.27;;
25569;SDS011;17955;45.542;9.238;2023-04-01T10:53:38;2.35;;;1.08;;
25569;SDS011;17955;45.542;9.238;2023-04-01T11:00:05;3.50;;;1.10;;
25569;SDS011;17955;45.542;9.238;2023-04-01T11:11:51;4.55;;;1.25;;
25569;SDS011;17955;45.542;9.238;2023-04-01T11:17:25;3.25;;;1.38;;
25569;SDS011;17955;45.542;9.238;2023-04-01T11:19:59;3.15;;;1.35;;
25569;SDS011;17955;45.542;9.238;2023-04-01T11:25:23;2.85;;;1.33;;
25569;SDS011;17955;45.542;9.238;2023-04-01T11:28:20;3.10;;;1.40;;
25569;SDS011;17955;45.542;9.238;2023-04-01T11:30:58;4.78;;;1.40;;
25569;SDS011;17955;45.542;9.238;2023-04-01T11:33:31;2.67;;;1.20;;
25569;SDS011;17955;45.542;9.238;2023-04-01T11:36:07;2.90;;;0.93;;
25569;SDS011;17955;45.542;9.238;2023-04-01T11:38:46;2.28;;;0.85;;
25569;SDS011;17955;45.542;9.238;2023-04-01T11:41:37;2.53;;;1.05;;
25569;SDS011;17955;45.542;9.238;2023-04-01T11:44:28;2.28;;;1.00;;
25569;SDS011;17955;45.542;9.238;2023-04-01T11:47:13;2.28;;;0.70;;
25569;SDS011;17955;45.542;9.238;2023-04-01T11:49:46;3.70;;;1.02;;
25569;SDS011;17955;45.542;9.238;2023-04-01T11:52:28;1.40;;;0.60;;
25569;SDS011;17955;45.542;9.238;2023-04-01T11:55:06;3.00;;;1.05;;
25569;SDS011;17955;45.542;9.238;2023-04-01T12:00:25;2.90;;;0.95;;
25569;SDS011;17955;45.542;9.238;2023-04-01T12:03:02;1.15;;;0.52;;
25569;SDS011;17955;45.542;9.238;2023-04-01T12:05:40;1.55;;;0.77;;
25569;SDS011;17955;45.542;9.238;2023-04-01T12:08:21;0.88;;;0.40;;
25569;SDS011;17955;45.542;9.238;2023-04-01T12:10:52;0.68;;;0.47;;
25569;SDS011;17955;45.542;9.238;2023-04-01T12:13:29;1.27;;;0.40;;
25569;SDS011;17955;45.542;9.238;2023-04-01T12:16:08;1.38;;;0.50;;
25569;SDS011;17955;45.542;9.238;2023-04-01T12:18:40;0.43;;;0.43;;
25569;SDS011;17955;45.542;9.238;2023-04-01T12:21:14;1.15;;;0.52;;
25569;SDS011;17955;45.542;9.238;2023-04-01T12:23:58;1.58;;;0.60;;
25569;SDS011;17955;45.542;9.238;2023-04-01T12:26:33;0.73;;;0.47;;
25569;SDS011;17955;45.542;9.238;2023-04-01T12:29:07;1.10;;;0.40;;
25569;SDS011;17955;45.542;9.238;2023-04-01T12:31:39;1.88;;;0.52;;
25569;SDS011;17955;45.542;9.238;2023-04-01T12:34:15;1.77;;;0.43;;
25569;SDS011;17955;45.542;9.238;2023-04-01T12:36:52;0.75;;;0.43;;
25569;SDS011;17955;45.542;9.238;2023-04-01T12:39:33;0.98;;;0.50;;
25569;SDS011;17955;45.542;9.238;2023-04-01T12:42:05;1.88;;;0.40;;
25569;SDS011;17955;45.542;9.238;2023-04-01T12:44:36;3.72;;;1.02;;
25569;SDS011;17955;45.542;9.238;2023-04-01T12:52:34;0.52;;;0.40;;
25569;SDS011;17955;45.542;9.238;2023-04-01T12:55:18;0.90;;;0.43;;
25569;SDS011;17955;45.542;9.238;2023-04-01T12:57:59;1.13;;;0.32;;
25569;SDS011;17955;45.542;9.238;2023-04-01T13:00:38;0.82;;;0.40;;
25569;SDS011;17955;45.542;9.238;2023-04-01T13:03:13;5.03;;;2.20;;
25569;SDS011;17955;45.542;9.238;2023-04-01T13:08:34;1.42;;;0.93;;
25569;SDS011;17955;45.542;9.238;2023-04-01T13:11:09;2.47;;;0.77;;
25569;SDS011;17955;45.542;9.238;2023-04-01T13:16:22;2.13;;;0.30;;
25569;SDS011;17955;45.542;9.238;2023-04-01T13:18:54;0.40;;;0.30;;
25569;SDS011;17955;45.542;9.238;2023-04-01T13:21:26;0.93;;;0.40;;
25569;SDS011;17955;45.542;9.238;2023-04-01T13:23:58;0.40;;;0.30;;
25569;SDS011;17955;45.542;9.238;2023-04-01T13:26:29;2.83;;;0.40;;
25569;SDS011;17955;45.542;9.238;2023-04-01T13:28:59;0.47;;;0.30;;
25569;SDS011;17955;45.542;9.238;2023-04-01T13:31:34;2.15;;;0.40;;
25569;SDS011;17955;45.542;9.238;2023-04-01T13:34:20;1.63;;;0.40;;
25569;SDS011;17955;45.542;9.238;2023-04-01T13:36:56;0.45;;;0.25;;
25569;SDS011;17955;45.542;9.238;2023-04-01T13:39:30;2.65;;;0.32;;
25569;SDS011;17955;45.542;9.238;2023-04-01T13:42:10;4.22;;;0.43;;
25569;SDS011;17955;45.542;9.238;2023-04-01T13:44:41;0.88;;;0.40;;
25569;SDS011;17955;45.542;9.238;2023-04-01T13:52:47;4.18;;;0.70;;
25569;SDS011;17955;45.542;9.238;2023-04-01T13:55:23;0.45;;;0.30;;
25569;SDS011;17955;45.542;9.238;2023-04-01T13:58:02;2.03;;;0.63;;
25569;SDS011;17955;45.542;9.238;2023-04-01T14:00:35;1.15;;;0.40;;
25569;SDS011;17955;45.542;9.238;2023-04-01T14:03:15;2.33;;;0.40;;
25569;SDS011;17955;45.542;9.238;2023-04-01T14:05:47;0.20;;;0.20;;
25569;SDS011;17955;45.542;9.238;2023-04-01T14:08:19;4.20;;;0.47;;
25569;SDS011;17955;45.542;9.238;2023-04-01T14:10:50;4.50;;;0.85;;
25569;SDS011;17955;45.542;9.238;2023-04-01T14:15:54;2.72;;;0.43;;
25569;SDS011;17955;45.542;9.238;2023-04-01T14:18:32;1.25;;;0.30;;
25569;SDS011;17955;45.542;9.238;2023-04-01T14:21:06;1.90;;;0.40;;
25569;SDS011;17955;45.542;9.238;2023-04-01T14:23:41;0.65;;;0.30;;
25569;SDS011;17955;45.542;9.238;2023-04-01T14:26:13;0.93;;;0.52;;
25569;SDS011;17955;45.542;9.238;2023-04-01T14:28:44;0.55;;;0.40;;
25569;SDS011;17955;45.542;9.238;2023-04-01T14:33:58;0.85;;;0.20;;
25569;SDS011;17955;45.542;9.238;2023-04-01T14:36:47;1.00;;;0.43;;
25569;SDS011;17955;45.542;9.238;2023-04-01T14:39:23;0.95;;;0.30;;
25569;SDS011;17955;45.542;9.238;2023-04-01T14:42:01;3.13;;;0.88;;
25569;SDS011;17955;45.542;9.238;2023-04-01T14:44:36;0.55;;;0.20;;
25569;SDS011;17955;45.542;9.238;2023-04-01T14:47:20;2.25;;;0.73;;
25569;SDS011;17955;45.542;9.238;2023-04-01T14:49:52;1.38;;;0.40;;
25569;SDS011;17955;45.542;9.238;2023-04-01T14:52:22;0.68;;;0.30;;
25569;SDS011;17955;45.542;9.238;2023-04-01T14:54:51;0.28;;;0.28;;
25569;SDS011;17955;45.542;9.238;2023-04-01T14:57:23;0.55;;;0.40;;
25569;SDS011;17955;45.542;9.238;2023-04-01T14:59:53;0.63;;;0.40;;
25569;SDS011;17955;45.542;9.238;2023-04-01T15:02:28;0.95;;;0.30;;
25569;SDS011;17955;45.542;9.238;2023-04-01T15:05:03;1.42;;;0.60;;
25569;SDS011;17955;45.542;9.238;2023-04-01T15:08:00;0.57;;;0.30;;
25569;SDS011;17955;45.542;9.238;2023-04-01T15:10:32;0.45;;;0.30;;
25569;SDS011;17955;45.542;9.238;2023-04-01T15:13:09;0.90;;;0.40;;
25569;SDS011;17955;45.542;9.238;2023-04-01T15:15:41;0.50;;;0.30;;
25569;SDS011;17955;45.542;9.238;2023-04-01T15:18:12;1.23;;;0.45;;
25569;SDS011;17955;45.542;9.238;2023-04-01T15:20:48;1.20;;;0.40;;
25569;SDS011;17955;45.542;9.238;2023-04-01T15:23:21;0.30;;;0.30;;
25569;SDS011;17955;45.542;9.238;2023-04-01T15:26:01;0.70;;;0.40;;
25569;SDS011;17955;45.542;9.238;2023-04-01T15:28:34;0.88;;;0.32;;
25569;SDS011;17955;45.542;9.238;2023-04-01T15:31:06;0.75;;;0.40;;
25569;SDS011;17955;45.542;9.238;2023-04-01T15:33:39;3.15;;;0.30;;
25569;SDS011;17955;45.542;9.238;2023-04-01T15:36:13;0.32;;;0.30;;
25569;SDS011;17955;45.542;9.238;2023-04-01T15:38:44;1.67;;;0.60;;
25569;SDS011;17955;45.542;9.238;2023-04-01T15:41:15;0.85;;;0.30;;
25569;SDS011;17955;45.542;9.238;2023-04-01T15:43:45;0.68;;;0.30;;
25569;SDS011;17955;45.542;9.238;2023-04-01T15:46:17;1.13;;;0.25;;
25569;SDS011;17955;45.542;9.238;2023-04-01T15:51:41;0.70;;;0.40;;
25569;SDS011;17955;45.542;9.238;2023-04-01T15:54:23;0.47;;;0.30;;
25569;SDS011;17955;45.542;9.238;2023-04-01T15:56:53;0.20;;;0.20;;
25569;SDS011;17955;45.542;9.238;2023-04-01T15:59:32;1.08;;;0.63;;
25569;SDS011;17955;45.542;9.238;2023-04-01T16:02:07;1.23;;;0.50;;
25569;SDS011;17955;45.542;9.238;2023-04-01T16:04:46;1.63;;;0.45;;
25569;SDS011;17955;45.542;9.238;2023-04-01T16:13:03;0.52;;;0.32;;
25569;SDS011;17955;45.542;9.238;2023-04-01T16:15:34;0.77;;;0.50;;
25569;SDS011;17955;45.542;9.238;2023-04-01T16:18:08;0.85;;;0.40;;
25569;SDS011;17955;45.542;9.238;2023-04-01T16:20:42;1.63;;;0.70;;
25569;SDS011;17955;45.542;9.238;2023-04-01T16:23:11;0.70;;;0.40;;
25569;SDS011;17955;45.542;9.238;2023-04-01T16:25:44;1.40;;;0.70;;
25569;SDS011;17955;45.542;9.238;2023-04-01T16:28:15;0.60;;;0.40;;
25569;SDS011;17955;45.542;9.238;2023-04-01T16:30:47;1.45;;;0.43;;
25569;SDS011;17955;45.542;9.238;2023-04-01T16:33:19;0.63;;;0.40;;
25569;SDS011;17955;45.542;9.238;2023-04-01T16:35:49;1.05;;;0.40;;
25569;SDS011;17955;45.542;9.238;2023-04-01T16:38:18;0.75;;;0.30;;
25569;SDS011;17955;45.542;9.238;2023-04-01T16:40:52;0.75;;;0.43;;
25569;SDS011;17955;45.542;9.238;2023-04-01T16:43:21;0.75;;;0.43;;
25569;SDS011;17955;45.542;9.238;2023-04-01T16:45:55;0.80;;;0.40;;
25569;SDS011;17955;45.542;9.238;2023-04-01T16:48:27;0.70;;;0.30;;
25569;SDS011;17955;45.542;9.238;2023-04-01T16:50:58;0.98;;;0.50;;
25569;SDS011;17955;45.542;9.238;2023-04-01T16:53:30;2.92;;;0.40;;
25569;SDS011;17955;45.542;9.238;2023-04-01T16:56:04;3.65;;;0.60;;
25569;SDS011;17955;45.542;9.238;2023-04-01T16:58:35;0.57;;;0.30;;
25569;SDS011;17955;45.542;9.238;2023-04-01T17:01:06;0.95;;;0.40;;
25569;SDS011;17955;45.542;9.238;2023-04-01T17:03:36;1.95;;;0.50;;